Station Historical Data
Daily Summary for June 22, 2017 Units:  English    Metric   Both
« Previous Day
Next Day »
Daily Weekly Monthly Yearly Custom
  High: Low: Average:
Temperature: 81.4 °F 55.3 °F 68.8 °F
Dew Point: 69.2 °F 51.4 °F 59.8 °F
Humidity: 87% 46% 74%
Wind Speed: 13.0mph 0.0mph 2.5mph
Wind Gust: 22.0mph - -
Wind- - SW
Pressure: 29.99 in 29.77 in -
Precipitation: 0.00 in    
Historical Graphs
 
 
Tabular Data for June 22, 2017
Time Temperature Dew Point Pressure Wind Wind Speed Wind Gust Humidity Rainfall Rate (Hourly)
00:04 61.9 °F 56.3 °F 29.97 in Calm     82% 0.00 in
00:09 61.7 °F 56.1 °F 29.97 in SW 1.0 mph 3.0 mph 82% 0.00 in
00:14 61.7 °F 56.5 °F 29.97 in SW 1.0 mph 3.0 mph 83% 0.00 in
00:19 61.6 °F 56.4 °F 29.97 in Calm     83% 0.00 in
00:24 61.5 °F 56.3 °F 29.97 in Calm   1.0 mph 83% 0.00 in
00:29 61.3 °F 56.4 °F 29.97 in Calm   1.0 mph 84% 0.00 in
00:34 61.1 °F 56.2 °F 29.97 in Calm     84% 0.00 in
00:39 60.9 °F 56.0 °F 29.97 in Calm     84% 0.00 in
00:44 60.6 °F 56.1 °F 29.97 in Calm     85% 0.00 in
00:49 60.6 °F 56.1 °F 29.97 in Calm     85% 0.00 in
00:54 60.4 °F 55.9 °F 29.97 in Calm     85% 0.00 in
00:59 60.0 °F 55.5 °F 29.97 in Calm     85% 0.00 in
01:04 59.7 °F 55.5 °F 29.98 in Calm     86% 0.00 in
01:09 59.6 °F 55.4 °F 29.98 in Calm     86% 0.00 in
01:14 59.6 °F 55.7 °F 29.98 in Calm   2.0 mph 87% 0.00 in
01:19 59.5 °F 55.6 °F 29.98 in Calm   2.0 mph 87% 0.00 in
01:24 59.5 °F 55.6 °F 29.98 in Calm     87% 0.00 in
01:29 59.5 °F 55.6 °F 29.98 in Calm     87% 0.00 in
01:34 59.4 °F 55.5 °F 29.98 in Calm     87% 0.00 in
01:39 59.5 °F 55.6 °F 29.98 in Calm     87% 0.00 in
01:44 59.3 °F 55.1 °F 29.98 in Calm     86% 0.00 in
01:49 59.3 °F 55.1 °F 29.98 in Calm     86% 0.00 in
01:54 59.1 °F 54.9 °F 29.98 in Calm     86% 0.00 in
01:59 58.9 °F 55.0 °F 29.98 in Calm     87% 0.00 in
02:04 58.7 °F 54.5 °F 29.97 in Calm     86% 0.00 in
02:09 58.4 °F 54.2 °F 29.97 in Calm     86% 0.00 in
02:14 58.2 °F 54.3 °F 29.97 in Calm     87% 0.00 in
02:19 58.0 °F 54.2 °F 29.98 in Calm     87% 0.00 in
02:24 58.0 °F 54.2 °F 29.98 in Calm     87% 0.00 in
02:29 58.0 °F 54.2 °F 29.97 in Calm     87% 0.00 in
02:34 58.0 °F 54.2 °F 29.97 in Calm     87% 0.00 in
02:39 57.8 °F 53.6 °F 29.97 in Calm     86% 0.00 in
02:44 57.6 °F 53.4 °F 29.97 in Calm     86% 0.00 in
02:49 57.5 °F 53.3 °F 29.97 in Calm     86% 0.00 in
02:54 57.5 °F 53.3 °F 29.97 in Calm     86% 0.00 in
02:59 57.3 °F 53.1 °F 29.97 in Calm     86% 0.00 in
03:04 57.1 °F 53.0 °F 29.97 in Calm     86% 0.00 in
03:09 57.1 °F 53.0 °F 29.97 in Calm     86% 0.00 in
03:14 57.1 °F 53.0 °F 29.97 in Calm     86% 0.00 in
03:19 56.9 °F 52.8 °F 29.98 in Calm     86% 0.00 in
03:24 57.0 °F 52.9 °F 29.98 in Calm     86% 0.00 in
03:29 56.9 °F 52.8 °F 29.98 in Calm     86% 0.00 in
03:34 56.8 °F 52.7 °F 29.98 in Calm     86% 0.00 in
03:39 57.0 °F 52.9 °F 29.98 in Calm     86% 0.00 in
03:44 56.8 °F 52.3 °F 29.99 in SW 1.0 mph 1.0 mph 85% 0.00 in
03:49 57.0 °F 52.5 °F 29.98 in SW 1.0 mph 5.0 mph 85% 0.00 in
03:54 57.0 °F 52.5 °F 29.99 in SW 1.0 mph 5.0 mph 85% 0.00 in
03:59 57.1 °F 52.6 °F 29.99 in Calm   3.0 mph 85% 0.00 in
04:04 57.0 °F 52.5 °F 29.98 in Calm     85% 0.00 in
04:09 56.7 °F 52.2 °F 29.99 in Calm     85% 0.00 in
04:14 56.5 °F 52.0 °F 29.98 in Calm     85% 0.00 in
04:19 56.4 °F 51.9 °F 29.98 in Calm     85% 0.00 in
04:24 56.3 °F 52.2 °F 29.98 in Calm     86% 0.00 in
04:29 56.3 °F 51.8 °F 29.98 in Calm     85% 0.00 in
04:34 56.3 °F 51.8 °F 29.99 in Calm     85% 0.00 in
04:39 56.2 °F 52.1 °F 29.99 in Calm     86% 0.00 in
04:44 56.0 °F 51.9 °F 29.99 in Calm     86% 0.00 in
04:49 56.0 °F 51.9 °F 29.99 in Calm     86% 0.00 in
04:54 55.9 °F 51.8 °F 29.99 in Calm     86% 0.00 in
04:59 55.8 °F 51.7 °F 29.98 in Calm     86% 0.00 in
05:04 55.7 °F 51.6 °F 29.99 in Calm     86% 0.00 in
05:09 55.5 °F 51.4 °F 29.99 in Calm     86% 0.00 in
05:14 55.5 °F 51.7 °F 29.99 in Calm     87% 0.00 in
05:19 55.3 °F 51.5 °F 29.99 in Calm     87% 0.00 in
05:24 55.4 °F 51.6 °F 29.98 in Calm     87% 0.00 in
05:29 55.6 °F 51.8 °F 29.98 in Calm   1.0 mph 87% 0.00 in
05:34 55.7 °F 51.9 °F 29.98 in Calm   2.0 mph 87% 0.00 in
05:39 55.7 °F 51.6 °F 29.98 in Calm   2.0 mph 86% 0.00 in
05:44 55.8 °F 51.7 °F 29.98 in Calm     86% 0.00 in
05:49 55.8 °F 51.7 °F 29.98 in Calm     86% 0.00 in
05:54 55.7 °F 51.6 °F 29.98 in Calm     86% 0.00 in
05:59 55.6 °F 51.5 °F 29.99 in Calm     86% 0.00 in
06:04 55.5 °F 51.4 °F 29.98 in Calm     86% 0.00 in
06:09 55.5 °F 51.4 °F 29.99 in Calm     86% 0.00 in
06:14 55.6 °F 51.5 °F 29.99 in Calm     86% 0.00 in
06:19 55.7 °F 51.6 °F 29.99 in Calm     86% 0.00 in
06:24 56.1 °F 52.3 °F 29.98 in Calm     87% 0.00 in
06:29 56.7 °F 52.9 °F 29.98 in Calm     87% 0.00 in
06:34 57.1 °F 53.0 °F 29.98 in Calm     86% 0.00 in
06:39 57.2 °F 53.0 °F 29.98 in Calm   3.0 mph 86% 0.00 in
06:44 57.4 °F 53.2 °F 29.98 in SE 1.0 mph 4.0 mph 86% 0.00 in
06:49 57.9 °F 53.4 °F 29.99 in Calm   3.0 mph 85% 0.00 in
06:54 58.3 °F 53.8 °F 29.98 in Calm   3.0 mph 85% 0.00 in
06:59 58.8 °F 54.0 °F 29.98 in Calm   2.0 mph 84% 0.00 in
07:04 58.9 °F 53.7 °F 29.99 in Calm   3.0 mph 83% 0.00 in
07:09 59.0 °F 53.8 °F 29.99 in South 1.0 mph 1.0 mph 83% 0.00 in
07:14 59.0 °F 53.8 °F 29.99 in Calm   2.0 mph 83% 0.00 in
07:19 59.1 °F 53.9 °F 29.99 in Calm     83% 0.00 in
07:24 59.3 °F 54.1 °F 29.99 in Calm     83% 0.00 in
07:29 59.6 °F 54.4 °F 29.99 in SSE 1.0 mph 4.0 mph 83% 0.00 in
07:34 59.8 °F 54.3 °F 29.99 in SSE 2.0 mph 5.0 mph 82% 0.00 in
07:39 60.0 °F 54.5 °F 29.99 in SSE 2.0 mph 5.0 mph 82% 0.00 in
07:44 60.2 °F 54.7 °F 29.99 in Calm   2.0 mph 82% 0.00 in
07:49 60.3 °F 54.8 °F 29.99 in Calm   2.0 mph 82% 0.00 in
07:54 60.5 °F 55.0 °F 29.99 in SE 1.0 mph 3.0 mph 82% 0.00 in
07:59 60.7 °F 55.2 °F 29.99 in SSE 1.0 mph 4.0 mph 82% 0.00 in
08:04 61.4 °F 55.5 °F 29.99 in SSE 2.0 mph 4.0 mph 81% 0.00 in
08:09 61.9 °F 56.0 °F 29.99 in South 2.0 mph 5.0 mph 81% 0.00 in
08:14 62.7 °F 56.4 °F 29.99 in South 2.0 mph 5.0 mph 80% 0.00 in
08:19 63.6 °F 57.0 °F 29.99 in SSW 2.0 mph 4.0 mph 79% 0.00 in
08:24 64.3 °F 57.3 °F 29.98 in South 3.0 mph 5.0 mph 78% 0.00 in
08:29 64.6 °F 57.2 °F 29.98 in SSW 2.0 mph 5.0 mph 77% 0.00 in
08:34 65.0 °F 57.6 °F 29.98 in SSE 4.0 mph 4.0 mph 77% 0.00 in
08:39 65.5 °F 58.1 °F 29.98 in SSW 3.0 mph 4.0 mph 77% 0.00 in
08:44 66.1 °F 57.9 °F 29.98 in SW 4.0 mph 5.0 mph 75% 0.00 in
08:49 66.2 °F 58.0 °F 29.98 in SSW 3.0 mph 5.0 mph 75% 0.00 in
08:54 66.4 °F 58.6 °F 29.99 in SSE 2.0 mph 6.0 mph 76% 0.00 in
08:59 67.2 °F 58.2 °F 29.99 in SSW 3.0 mph 6.0 mph 73% 0.00 in
09:04 68.2 °F 58.4 °F 29.98 in South 3.0 mph 6.0 mph 71% 0.00 in
09:09 68.5 °F 58.3 °F 29.98 in South 3.0 mph 6.0 mph 70% 0.00 in
09:14 68.8 °F 58.6 °F 29.98 in South 3.0 mph 5.0 mph 70% 0.00 in
09:19 69.9 °F 58.9 °F 29.98 in South 3.0 mph 6.0 mph 68% 0.00 in
09:24 70.2 °F 57.4 °F 29.98 in WSW 4.0 mph 9.0 mph 64% 0.00 in
09:29 70.3 °F 56.7 °F 29.97 in WSW 2.0 mph 7.0 mph 62% 0.00 in
09:34 70.0 °F 55.9 °F 29.97 in WSW 6.0 mph 8.0 mph 61% 0.00 in
09:39 69.8 °F 55.3 °F 29.97 in SW 3.0 mph 7.0 mph 60% 0.00 in
09:44 70.4 °F 56.3 °F 29.97 in South 4.0 mph 8.0 mph 61% 0.00 in
09:49 70.7 °F 57.5 °F 29.97 in SW 4.0 mph 6.0 mph 63% 0.00 in
09:54 70.9 °F 56.8 °F 29.97 in WSW 2.0 mph 7.0 mph 61% 0.00 in
09:59 70.8 °F 58.0 °F 29.96 in SW 3.0 mph 7.0 mph 64% 0.00 in
10:04 70.9 °F 57.7 °F 29.95 in SSW 3.0 mph 7.0 mph 63% 0.00 in
10:09 70.7 °F 57.0 °F 29.96 in SSW 3.0 mph 7.0 mph 62% 0.00 in
10:14 70.7 °F 57.0 °F 29.96 in SSW 5.0 mph 10.0 mph 62% 0.00 in
10:19 71.1 °F 56.5 °F 29.96 in SW 4.0 mph 10.0 mph 60% 0.00 in
10:24 71.7 °F 58.0 °F 29.96 in SSW 1.0 mph 4.0 mph 62% 0.00 in
10:29 71.8 °F 56.7 °F 29.95 in SW 2.0 mph 5.0 mph 59% 0.00 in
10:34 71.8 °F 56.2 °F 29.95 in SW 2.0 mph 5.0 mph 58% 0.00 in
10:39 71.8 °F 55.7 °F 29.95 in SSE 2.0 mph 5.0 mph 57% 0.00 in
10:44 71.9 °F 55.8 °F 29.96 in SSW 2.0 mph 6.0 mph 57% 0.00 in
10:49 72.2 °F 54.6 °F 29.96 in SW 3.0 mph 6.0 mph 54% 0.00 in
10:54 73.0 °F 56.9 °F 29.96 in WNW 1.0 mph 5.0 mph 57% 0.00 in
10:59 73.2 °F 55.0 °F 29.97 in West 2.0 mph 5.0 mph 53% 0.00 in
11:04 72.9 °F 54.8 °F 29.97 in WSW 2.0 mph 6.0 mph 53% 0.00 in
11:09 74.1 °F 55.3 °F 29.96 in SE 3.0 mph 5.0 mph 52% 0.00 in
11:14 75.3 °F 57.0 °F 29.95 in South 4.0 mph 6.0 mph 53% 0.00 in
11:19 74.2 °F 54.9 °F 29.95 in SSE 3.0 mph 7.0 mph 51% 0.00 in
11:24 74.0 °F 54.7 °F 29.96 in South 2.0 mph 7.0 mph 51% 0.00 in
11:29 73.7 °F 54.4 °F 29.95 in SSW 2.0 mph 5.0 mph 51% 0.00 in
11:34 74.6 °F 57.4 °F 29.96 in WSW 2.0 mph 5.0 mph 55% 0.00 in
11:39 74.8 °F 54.4 °F 29.96 in West 2.0 mph 5.0 mph 49% 0.00 in
11:44 74.8 °F 56.0 °F 29.96 in West 1.0 mph 5.0 mph 52% 0.00 in
11:49 75.2 °F 55.8 °F 29.96 in SW 3.0 mph 6.0 mph 51% 0.00 in
11:54 75.1 °F 55.7 °F 29.96 in West 3.0 mph 4.0 mph 51% 0.00 in
11:59 74.5 °F 53.5 °F 29.97 in West 3.0 mph 10.0 mph 48% 0.00 in
12:04 73.7 °F 52.8 °F 29.97 in West 4.0 mph 10.0 mph 48% 0.00 in
12:09 73.5 °F 51.4 °F 29.98 in West 4.0 mph 7.0 mph 46% 0.00 in
12:14 73.1 °F 51.7 °F 29.98 in West 2.0 mph 5.0 mph 47% 0.00 in
12:19 72.9 °F 52.1 °F 29.98 in WNW 3.0 mph 4.0 mph 48% 0.00 in
12:24 71.8 °F 56.2 °F 29.98 in WNW 2.0 mph 4.0 mph 58% 0.00 in
12:29 68.8 °F 56.6 °F 29.97 in Calm   4.0 mph 65% 0.01 in
12:34 67.6 °F 57.9 °F 29.96 in WNW 1.0 mph 4.0 mph 71% 0.02 in
12:39 66.8 °F 59.0 °F 29.96 in Calm   3.0 mph 76% 0.03 in
12:44 67.3 °F 58.0 °F 29.95 in Calm   3.0 mph 72% 0.03 in
12:49 67.3 °F 58.7 °F 29.95 in WSW 1.0 mph 3.0 mph 74% 0.03 in
12:54 66.9 °F 57.6 °F 29.94 in SW 1.0 mph 3.0 mph 72% 0.03 in
12:59 66.4 °F 57.5 °F 29.93 in Calm   3.0 mph 73% 0.04 in
13:04 66.1 °F 58.3 °F 29.93 in Calm   1.0 mph 76% 0.05 in
13:09 65.5 °F 57.7 °F 29.92 in South 1.0 mph 3.0 mph 76% 0.06 in
13:14 65.3 °F 58.6 °F 29.89 in SSE 4.0 mph 4.0 mph 79% 0.07 in
13:19 65.2 °F 57.8 °F 29.90 in SSE 1.0 mph 5.0 mph 77% 0.07 in
13:24 66.3 °F 58.9 °F 29.91 in SSE 1.0 mph 5.0 mph 77% 0.07 in
13:29 66.6 °F 58.1 °F 29.92 in Calm   4.0 mph 74% 0.06 in
13:34 66.7 °F 57.4 °F 29.92 in South 1.0 mph 4.0 mph 72% 0.05 in
13:39 67.4 °F 59.2 °F 29.93 in Calm   3.0 mph 75% 0.04 in
13:44 68.0 °F 60.2 °F 29.93 in Calm   1.0 mph 76% 0.04 in
13:49 68.7 °F 58.5 °F 29.92 in Calm     70% 0.04 in
13:54 68.6 °F 58.4 °F 29.91 in Calm   3.0 mph 70% 0.04 in
13:59 68.7 °F 59.3 °F 29.91 in SSE 4.0 mph 4.0 mph 72% 0.03 in
14:04 68.7 °F 58.5 °F 29.90 in SSE 3.0 mph 6.0 mph 70% 0.02 in
14:09 69.2 °F 59.0 °F 29.88 in SSE 3.0 mph 6.0 mph 70% 0.01 in
14:14 69.5 °F 59.3 °F 29.88 in SSW 1.0 mph 6.0 mph 70% 0.00 in
14:19 70.7 °F 60.4 °F 29.88 in South 4.0 mph 9.0 mph 70% 0.00 in
14:24 72.1 °F 60.1 °F 29.87 in SSE 2.0 mph 10.0 mph 66% 0.00 in
14:29 73.0 °F 61.0 °F 29.87 in SW 1.0 mph 10.0 mph 66% 0.00 in
14:34 74.7 °F 61.3 °F 29.87 in SSE 5.0 mph 10.0 mph 63% 0.00 in
14:39 75.2 °F 62.2 °F 29.87 in South 5.0 mph 9.0 mph 64% 0.00 in
14:44 76.1 °F 62.6 °F 29.86 in South 5.0 mph 9.0 mph 63% 0.00 in
14:49 76.6 °F 63.1 °F 29.87 in South 4.0 mph 7.0 mph 63% 0.00 in
14:54 77.4 °F 64.7 °F 29.86 in SSE 2.0 mph 8.0 mph 65% 0.00 in
14:59 77.4 °F 63.8 °F 29.86 in WSW 4.0 mph 11.0 mph 63% 0.00 in
15:04 78.0 °F 64.4 °F 29.86 in SSW 5.0 mph 11.0 mph 63% 0.00 in
15:09 78.7 °F 65.0 °F 29.85 in SSW 5.0 mph 11.0 mph 63% 0.00 in
15:14 79.4 °F 65.2 °F 29.85 in SSW 5.0 mph 9.0 mph 62% 0.00 in
15:19 79.8 °F 65.2 °F 29.85 in SSW 5.0 mph 11.0 mph 61% 0.00 in
15:24 80.6 °F 66.4 °F 29.85 in SSW 6.0 mph 15.0 mph 62% 0.00 in
15:29 81.2 °F 66.0 °F 29.86 in South 9.0 mph 17.0 mph 60% 0.00 in
15:34 80.8 °F 65.6 °F 29.85 in SW 8.0 mph 20.0 mph 60% 0.00 in
15:39 81.0 °F 66.3 °F 29.85 in SW 8.0 mph 20.0 mph 61% 0.00 in
15:44 80.8 °F 66.1 °F 29.85 in WSW 8.0 mph 17.0 mph 61% 0.00 in
15:49 79.8 °F 65.2 °F 29.85 in SW 13.0 mph 15.0 mph 61% 0.00 in
15:54 78.6 °F 64.9 °F 29.85 in SW 13.0 mph 22.0 mph 63% 0.00 in
15:59 78.3 °F 65.1 °F 29.85 in West 12.0 mph 20.0 mph 64% 0.00 in
16:04 78.3 °F 65.1 °F 29.85 in SW 10.0 mph 20.0 mph 64% 0.00 in
16:09 78.7 °F 65.9 °F 29.85 in SW 9.0 mph 18.0 mph 65% 0.00 in
16:14 78.8 °F 66.5 °F 29.84 in SW 8.0 mph 21.0 mph 66% 0.00 in
16:19 79.4 °F 67.0 °F 29.84 in SW 9.0 mph 21.0 mph 66% 0.00 in
16:24 79.6 °F 67.2 °F 29.84 in SW 9.0 mph 17.0 mph 66% 0.00 in
16:29 80.4 °F 68.0 °F 29.85 in WSW 8.0 mph 17.0 mph 66% 0.00 in
16:34 81.4 °F 68.5 °F 29.85 in WSW 5.0 mph 10.0 mph 65% 0.00 in
16:39 81.0 °F 67.7 °F 29.85 in SW 4.0 mph 15.0 mph 64% 0.00 in
16:44 80.4 °F 68.0 °F 29.85 in WSW 7.0 mph 18.0 mph 66% 0.00 in
16:49 80.6 °F 68.2 °F 29.85 in SW 7.0 mph 16.0 mph 66% 0.00 in
16:54 80.4 °F 68.0 °F 29.84 in SW 7.0 mph 15.0 mph 66% 0.00 in
16:59 80.3 °F 67.9 °F 29.84 in WSW 4.0 mph 16.0 mph 66% 0.00 in
17:04 80.3 °F 67.9 °F 29.84 in WSW 8.0 mph 16.0 mph 66% 0.00 in
17:09 80.4 °F 68.0 °F 29.84 in WSW 7.0 mph 17.0 mph 66% 0.00 in
17:14 80.1 °F 68.2 °F 29.84 in WSW 7.0 mph 18.0 mph 67% 0.00 in
17:19 79.3 °F 67.8 °F 29.84 in WSW 8.0 mph 18.0 mph 68% 0.00 in
17:24 79.6 °F 68.1 °F 29.84 in WSW 8.0 mph 20.0 mph 68% 0.00 in
17:29 80.1 °F 68.2 °F 29.84 in WSW 7.0 mph 20.0 mph 67% 0.00 in
17:34 80.2 °F 68.2 °F 29.84 in WSW 7.0 mph 15.0 mph 67% 0.00 in
17:39 80.0 °F 68.1 °F 29.84 in WSW 13.0 mph 13.0 mph 67% 0.00 in
17:44 79.7 °F 68.2 °F 29.84 in WNW 5.0 mph 14.0 mph 68% 0.00 in
17:49 79.6 °F 68.1 °F 29.84 in WSW 5.0 mph 16.0 mph 68% 0.00 in
17:54 79.8 °F 68.7 °F 29.84 in SW 6.0 mph 10.0 mph 69% 0.00 in
17:59 80.1 °F 69.0 °F 29.84 in WSW 9.0 mph 12.0 mph 69% 0.00 in
18:04 80.7 °F 68.7 °F 29.84 in WSW 5.0 mph 15.0 mph 67% 0.00 in
18:09 80.8 °F 68.4 °F 29.84 in SW 7.0 mph 16.0 mph 66% 0.00 in
18:14 80.5 °F 68.1 °F 29.84 in SW 7.0 mph 16.0 mph 66% 0.00 in
18:19 79.9 °F 67.5 °F 29.84 in WSW 7.0 mph 14.0 mph 66% 0.00 in
18:24 79.6 °F 67.2 °F 29.84 in WSW 6.0 mph 14.0 mph 66% 0.00 in
18:29 79.4 °F 67.5 °F 29.84 in WSW 6.0 mph 13.0 mph 67% 0.00 in
18:34 79.4 °F 67.5 °F 29.84 in WSW 6.0 mph 13.0 mph 67% 0.00 in
18:44 78.8 °F 66.9 °F 29.84 in West 6.0 mph 15.0 mph 67% 0.00 in
18:49 78.7 °F 67.2 °F 29.83 in SW 6.0 mph 17.0 mph 68% 0.00 in
18:54 78.5 °F 67.5 °F 29.83 in WSW 5.0 mph 15.0 mph 69% 0.00 in
18:59 78.3 °F 67.3 °F 29.83 in SW 6.0 mph 11.0 mph 69% 0.00 in
19:04 78.0 °F 67.0 °F 29.83 in SW 5.0 mph 12.0 mph 69% 0.00 in
19:09 77.8 °F 67.2 °F 29.83 in SW 6.0 mph 13.0 mph 70% 0.00 in
19:14 77.7 °F 67.1 °F 29.83 in SW 6.0 mph 14.0 mph 70% 0.00 in
19:19 77.7 °F 67.1 °F 29.83 in WSW 7.0 mph 14.0 mph 70% 0.00 in
19:24 77.7 °F 67.1 °F 29.83 in WSW 6.0 mph 13.0 mph 70% 0.00 in
19:29 77.5 °F 66.9 °F 29.83 in WSW 5.0 mph 13.0 mph 70% 0.00 in
19:34 77.3 °F 67.2 °F 29.82 in SW 2.0 mph 8.0 mph 71% 0.00 in
19:39 77.0 °F 67.3 °F 29.82 in SW 4.0 mph 10.0 mph 72% 0.00 in
19:44 76.8 °F 67.1 °F 29.83 in SW 4.0 mph 10.0 mph 72% 0.00 in
19:49 76.7 °F 67.4 °F 29.83 in SW 5.0 mph 12.0 mph 73% 0.00 in
19:54 76.6 °F 67.3 °F 29.83 in SW 5.0 mph 12.0 mph 73% 0.00 in
19:59 76.4 °F 67.5 °F 29.82 in WSW 3.0 mph 8.0 mph 74% 0.00 in
20:04 76.3 °F 67.4 °F 29.82 in SW 6.0 mph 8.0 mph 74% 0.00 in
20:09 76.2 °F 67.3 °F 29.82 in WSW 3.0 mph 8.0 mph 74% 0.00 in
20:14 76.1 °F 67.2 °F 29.82 in SW 3.0 mph 8.0 mph 74% 0.00 in
20:19 76.2 °F 67.3 °F 29.82 in SW 1.0 mph 6.0 mph 74% 0.00 in
20:24 76.1 °F 67.2 °F 29.82 in SW 1.0 mph 5.0 mph 74% 0.00 in
20:29 75.8 °F 67.3 °F 29.82 in WSW 2.0 mph 8.0 mph 75% 0.00 in
20:34 75.6 °F 67.1 °F 29.82 in SW 3.0 mph 8.0 mph 75% 0.00 in
20:39 75.3 °F 67.2 °F 29.82 in SW 1.0 mph 10.0 mph 76% 0.00 in
20:44 75.0 °F 67.3 °F 29.82 in SW 3.0 mph 10.0 mph 77% 0.00 in
20:49 74.7 °F 67.4 °F 29.82 in SW 3.0 mph 8.0 mph 78% 0.00 in
20:54 74.5 °F 67.2 °F 29.82 in SSW 2.0 mph 8.0 mph 78% 0.00 in
20:59 74.4 °F 67.1 °F 29.81 in SSW 2.0 mph 5.0 mph 78% 0.00 in
21:04 74.4 °F 67.1 °F 29.82 in SW 2.0 mph 5.0 mph 78% 0.00 in
21:09 74.3 °F 67.0 °F 29.82 in SSW 2.0 mph 3.0 mph 78% 0.00 in
21:14 74.2 °F 66.9 °F 29.81 in SW 2.0 mph 4.0 mph 78% 0.00 in
21:19 74.3 °F 67.0 °F 29.81 in SW 1.0 mph 4.0 mph 78% 0.00 in
21:24 74.3 °F 67.0 °F 29.81 in SW 3.0 mph 4.0 mph 78% 0.00 in
21:29 74.3 °F 67.0 °F 29.81 in SSW 3.0 mph 5.0 mph 78% 0.00 in
21:34 74.1 °F 66.8 °F 29.81 in SSW 2.0 mph 3.0 mph 78% 0.00 in
21:39 74.0 °F 66.7 °F 29.81 in SSW 1.0 mph 3.0 mph 78% 0.00 in
21:44 73.9 °F 67.0 °F 29.81 in SSW 1.0 mph 3.0 mph 79% 0.00 in
21:49 73.8 °F 66.9 °F 29.81 in Calm   3.0 mph 79% 0.00 in
21:54 73.6 °F 66.7 °F 29.81 in Calm   2.0 mph 79% 0.00 in
21:59 73.4 °F 66.5 °F 29.81 in Calm     79% 0.00 in
22:04 73.2 °F 66.7 °F 29.81 in Calm     80% 0.00 in
22:09 73.3 °F 66.8 °F 29.81 in Calm   2.0 mph 80% 0.00 in
22:14 73.4 °F 66.5 °F 29.81 in Calm   3.0 mph 79% 0.00 in
22:19 73.6 °F 66.7 °F 29.81 in SSW 1.0 mph 2.0 mph 79% 0.00 in
22:24 73.9 °F 67.0 °F 29.81 in Calm   2.0 mph 79% 0.00 in
22:29 74.0 °F 67.1 °F 29.81 in South 1.0 mph 3.0 mph 79% 0.00 in
22:34 74.2 °F 67.3 °F 29.80 in South 1.0 mph 2.0 mph 79% 0.00 in
22:39 74.3 °F 67.4 °F 29.80 in South 1.0 mph 4.0 mph 79% 0.00 in
22:44 74.6 °F 67.7 °F 29.80 in South 2.0 mph 5.0 mph 79% 0.00 in
22:49 74.9 °F 67.9 °F 29.79 in South 2.0 mph 6.0 mph 79% 0.00 in
22:54 75.2 °F 68.2 °F 29.79 in SSW 5.0 mph 7.0 mph 79% 0.00 in
22:59 75.6 °F 68.3 °F 29.79 in SSW 3.0 mph 6.0 mph 78% 0.00 in
23:04 75.9 °F 68.2 °F 29.78 in SSW 5.0 mph 7.0 mph 77% 0.00 in
23:09 75.9 °F 68.2 °F 29.78 in SSW 2.0 mph 7.0 mph 77% 0.00 in
23:14 76.0 °F 68.6 °F 29.79 in SSW 2.0 mph 6.0 mph 78% 0.00 in
23:19 76.1 °F 68.4 °F 29.79 in SSE 3.0 mph 5.0 mph 77% 0.00 in
23:24 76.4 °F 68.7 °F 29.79 in SSW 7.0 mph 10.0 mph 77% 0.00 in
23:29 76.9 °F 69.1 °F 29.79 in SSW 2.0 mph 12.0 mph 77% 0.00 in
23:34 77.2 °F 69.0 °F 29.78 in SSW 4.0 mph 12.0 mph 76% 0.00 in
23:39 77.4 °F 69.2 °F 29.78 in SW 3.0 mph 8.0 mph 76% 0.00 in
23:44 77.6 °F 69.0 °F 29.78 in SSW 5.0 mph 10.0 mph 75% 0.00 in
23:49 77.7 °F 69.1 °F 29.78 in SSW 5.0 mph 12.0 mph 75% 0.00 in
23:54 77.7 °F 69.1 °F 29.77 in SSW 7.0 mph 11.0 mph 75% 0.00 in
23:59 77.7 °F 69.1 °F 29.77 in SW 3.0 mph 12.0 mph 75% 0.00 in
Buffalo, New York, USA
Compliments of Weather Underground - 2.5 mb